createdAt,value
2017-06-06T00:00:55.996Z,11.37
2017-06-06T00:03:22.742Z,11.27
2017-06-06T00:05:48.776Z,10.90
2017-06-06T00:08:14.747Z,10.93
2017-06-06T00:10:40.734Z,11.40
2017-06-06T00:13:06.742Z,12.30
2017-06-06T00:15:32.727Z,10.60
2017-06-06T00:17:58.694Z,10.33
2017-06-06T00:20:25.475Z,11.27
2017-06-06T00:22:51.542Z,10.90
2017-06-06T00:25:17.571Z,10.90
2017-06-06T00:27:43.539Z,10.83
2017-06-06T00:30:10.295Z,10.57
2017-06-06T00:32:36.284Z,11.63
2017-06-06T00:35:02.986Z,11.77
2017-06-06T00:37:29.023Z,12.10
2017-06-06T00:39:55.750Z,10.73
2017-06-06T00:42:21.750Z,11.47
2017-06-06T00:44:48.531Z,11.57
2017-06-06T00:47:14.496Z,11.90
2017-06-06T00:49:41.251Z,11.90
2017-06-06T00:52:07.275Z,11.77
2017-06-06T00:54:33.254Z,11.40
2017-06-06T00:56:59.293Z,11.80
2017-06-06T00:59:25.348Z,12.80
2017-06-06T01:01:52.103Z,12.03
2017-06-06T01:04:18.074Z,11.90
2017-06-06T01:06:44.140Z,12.67
2017-06-06T01:09:10.152Z,12.27
2017-06-06T01:11:36.129Z,12.40
2017-06-06T01:14:02.128Z,12.13
2017-06-06T01:16:28.831Z,12.33
2017-06-06T01:18:54.882Z,12.97
2017-06-06T01:21:27.095Z,13.50
2017-06-06T01:23:53.151Z,14.60
2017-06-06T01:26:19.161Z,12.73
2017-06-06T01:28:45.175Z,11.90
2017-06-06T01:31:11.143Z,12.70
2017-06-06T01:33:43.997Z,12.00
2017-06-06T01:36:10.753Z,11.77
2017-06-06T01:38:36.723Z,12.40
2017-06-06T01:41:02.770Z,13.37
2017-06-06T01:43:28.802Z,13.20
2017-06-06T01:45:54.787Z,10.77
2017-06-06T01:48:20.907Z,11.67
2017-06-06T01:50:46.890Z,12.73
2017-06-06T01:53:12.889Z,11.10
2017-06-06T01:55:39.675Z,10.07
2017-06-06T01:58:05.634Z,10.43
2017-06-06T02:00:31.599Z,10.23
2017-06-06T02:02:57.618Z,10.63
2017-06-06T02:05:23.608Z,11.13
2017-06-06T02:07:49.643Z,10.87
2017-06-06T02:10:15.602Z,10.40
2017-06-06T02:12:41.571Z,10.77
2017-06-06T02:15:07.611Z,11.10
2017-06-06T02:17:33.574Z,10.87
2017-06-06T02:19:59.547Z,10.13
2017-06-06T02:22:25.611Z,10.70
2017-06-06T02:24:51.593Z,10.50
2017-06-06T02:27:17.611Z,10.33
2017-06-06T02:29:43.627Z,9.50
2017-06-06T02:32:09.586Z,10.87
2017-06-06T02:34:35.599Z,9.83
2017-06-06T02:37:01.624Z,12.37
2017-06-06T02:39:27.626Z,10.57
2017-06-06T02:41:53.680Z,11.17
2017-06-06T02:44:19.706Z,10.83
2017-06-06T02:46:46.439Z,10.37
2017-06-06T02:49:13.145Z,12.13
2017-06-06T02:51:39.183Z,11.67
2017-06-06T02:54:05.159Z,11.47
2017-06-06T02:56:31.135Z,10.90
2017-06-06T02:58:57.231Z,10.30
2017-06-06T03:01:23.206Z,11.77
2017-06-06T03:03:50.038Z,11.57
2017-06-06T03:06:16.782Z,11.20
2017-06-06T03:08:42.814Z,12.47
2017-06-06T03:11:08.810Z,12.40
2017-06-06T03:13:34.814Z,12.00
2017-06-06T03:16:00.771Z,12.10
2017-06-06T03:18:26.786Z,12.80
2017-06-06T03:20:53.106Z,12.13
2017-06-06T03:23:19.082Z,12.83
2017-06-06T03:25:45.046Z,13.00
2017-06-06T03:28:11.812Z,13.03
2017-06-06T03:30:37.792Z,13.17
2017-06-06T03:33:03.794Z,13.10
2017-06-06T03:35:29.770Z,13.00
2017-06-06T03:37:55.753Z,12.07
2017-06-06T03:40:21.790Z,12.30
2017-06-06T03:42:47.762Z,13.40
2017-06-06T03:45:13.724Z,13.73
2017-06-06T03:47:39.741Z,12.73
2017-06-06T03:50:06.473Z,13.30
2017-06-06T03:52:32.530Z,13.07
2017-06-06T03:54:58.558Z,12.17
2017-06-06T03:57:24.551Z,13.20
2017-06-06T03:59:50.536Z,13.13
2017-06-06T04:02:16.574Z,13.33
2017-06-06T04:04:42.534Z,12.50
2017-06-06T04:07:08.554Z,12.33
2017-06-06T04:09:34.511Z,12.03
2017-06-06T04:12:00.498Z,12.40
2017-06-06T04:14:26.530Z,13.23
2017-06-06T04:16:52.524Z,11.23
2017-06-06T04:19:18.490Z,11.63
2017-06-06T04:21:44.532Z,12.07
2017-06-06T04:24:10.523Z,11.00
2017-06-06T04:26:36.490Z,11.97
2017-06-06T04:29:03.249Z,11.17
2017-06-06T04:31:29.241Z,12.10
2017-06-06T04:33:55.322Z,11.70
2017-06-06T04:36:21.354Z,11.13
2017-06-06T04:38:48.123Z,10.73
2017-06-06T04:41:14.106Z,10.67
2017-06-06T04:43:40.174Z,11.33
2017-06-06T04:46:06.139Z,10.57
2017-06-06T04:48:32.118Z,9.57
2017-06-06T04:50:58.130Z,10.43
2017-06-06T04:53:24.102Z,10.77
2017-06-06T04:55:50.058Z,10.10
2017-06-06T04:58:16.130Z,11.20
2017-06-06T05:00:42.095Z,11.40
2017-06-06T05:03:08.094Z,10.00
2017-06-06T05:05:34.042Z,10.17
2017-06-06T05:08:00.010Z,11.27
2017-06-06T05:10:26.055Z,9.30
2017-06-06T05:12:52.070Z,10.13
2017-06-06T05:15:18.029Z,10.33
2017-06-06T05:17:44.046Z,10.20
2017-06-06T05:20:10.039Z,9.67
2017-06-06T05:22:36.023Z,9.70
2017-06-06T05:25:02.782Z,10.43
2017-06-06T05:27:28.824Z,9.30
2017-06-06T05:29:54.846Z,8.70
2017-06-06T05:32:20.875Z,9.60
2017-06-06T05:34:46.887Z,9.23
2017-06-06T05:37:12.901Z,9.63
2017-06-06T05:39:38.894Z,10.60
2017-06-06T05:42:04.883Z,9.23
2017-06-06T05:44:30.886Z,9.30
2017-06-06T05:46:56.896Z,9.73
2017-06-06T05:49:22.921Z,9.73
2017-06-06T05:51:48.973Z,9.50
2017-06-06T05:54:15.676Z,8.50
2017-06-06T05:56:41.635Z,9.00
2017-06-06T05:59:07.639Z,8.80
2017-06-06T06:01:33.622Z,9.13
2017-06-06T06:03:59.580Z,8.10
2017-06-06T06:06:25.608Z,7.90
2017-06-06T06:08:51.647Z,10.33
2017-06-06T06:11:17.630Z,8.67
2017-06-06T06:13:43.595Z,7.93
2017-06-06T06:16:09.623Z,7.70
2017-06-06T06:18:35.599Z,8.30
2017-06-06T06:21:01.562Z,8.00
2017-06-06T06:23:27.591Z,6.67
2017-06-06T06:25:54.328Z,7.50
2017-06-06T06:28:20.291Z,7.23
2017-06-06T06:30:46.287Z,8.60
2017-06-06T06:33:12.250Z,7.60
2017-06-06T06:35:39.062Z,6.97
2017-06-06T06:38:05.768Z,7.90
2017-06-06T06:40:31.734Z,7.20
2017-06-06T06:42:57.763Z,7.57
2017-06-06T06:45:23.734Z,7.47
2017-06-06T06:47:49.702Z,8.33
2017-06-06T06:50:15.707Z,6.80
2017-06-06T06:52:41.667Z,7.63
2017-06-06T06:55:08.026Z,7.20
2017-06-06T06:57:33.990Z,7.50
2017-06-06T06:59:59.946Z,7.97
2017-06-06T07:02:25.971Z,7.70
2017-06-06T07:04:51.962Z,7.30
2017-06-06T07:07:17.914Z,7.23
2017-06-06T07:09:43.945Z,7.30
2017-06-06T07:12:09.922Z,6.63
2017-06-06T07:14:36.642Z,7.93
2017-06-06T07:17:03.416Z,7.53
2017-06-06T07:19:29.394Z,7.43
2017-06-06T07:21:55.366Z,7.47
2017-06-06T07:24:21.386Z,7.83
2017-06-06T07:26:47.354Z,7.53
2017-06-06T07:29:13.458Z,7.83
2017-06-06T07:31:39.470Z,8.00
2017-06-06T07:34:05.450Z,7.10
2017-06-06T07:36:31.433Z,7.30
2017-06-06T07:38:57.427Z,8.07
2017-06-06T07:41:23.407Z,8.03
2017-06-06T07:43:49.398Z,7.83
2017-06-06T07:46:15.443Z,7.90
2017-06-06T07:48:41.415Z,7.93
2017-06-06T07:51:07.370Z,7.83
2017-06-06T07:53:33.370Z,6.53
2017-06-06T07:55:59.368Z,7.40
2017-06-06T07:58:25.343Z,7.30
2017-06-06T08:00:51.387Z,7.67
2017-06-06T08:03:17.402Z,7.30
2017-06-06T08:05:43.371Z,7.10
2017-06-06T08:08:09.362Z,7.37
2017-06-06T08:10:36.103Z,7.10
2017-06-06T08:13:02.062Z,7.33
2017-06-06T08:15:28.032Z,7.07
2017-06-06T08:17:54.044Z,8.40
2017-06-06T08:20:20.010Z,7.77
2017-06-06T08:22:45.964Z,6.60
2017-06-06T08:25:11.980Z,6.17
2017-06-06T08:27:37.955Z,5.67
2017-06-06T08:30:03.911Z,6.63
2017-06-06T08:32:29.922Z,5.87
2017-06-06T08:34:55.891Z,6.23
2017-06-06T08:37:21.869Z,7.40
2017-06-06T08:39:48.618Z,6.60
2017-06-06T08:42:14.578Z,6.43
2017-06-06T08:44:40.614Z,6.77
2017-06-06T08:47:07.310Z,6.87
2017-06-06T08:49:33.300Z,6.60
2017-06-06T08:51:59.306Z,6.77
2017-06-06T08:54:25.274Z,5.57
2017-06-06T08:56:51.322Z,6.50
2017-06-06T08:59:17.322Z,5.67
2017-06-06T09:01:43.295Z,6.00
2017-06-06T09:04:09.277Z,6.10
2017-06-06T09:06:35.275Z,6.07
2017-06-06T09:09:01.234Z,5.47
2017-06-06T09:11:27.202Z,6.10
2017-06-06T09:13:53.238Z,5.40
2017-06-06T09:16:19.990Z,6.33
2017-06-06T09:18:45.958Z,5.57
2017-06-06T09:21:11.915Z,5.73
2017-06-06T09:23:37.937Z,5.43
2017-06-06T09:26:03.891Z,5.40
2017-06-06T09:28:30.589Z,4.93
2017-06-06T09:30:56.599Z,5.83
2017-06-06T09:33:22.570Z,5.40
2017-06-06T09:35:48.538Z,4.87
2017-06-06T09:38:14.530Z,5.40
2017-06-06T09:40:40.498Z,5.50
2017-06-06T09:43:06.503Z,4.77
2017-06-06T09:45:32.486Z,5.23
2017-06-06T09:47:58.459Z,5.43
2017-06-06T09:50:24.467Z,4.40
2017-06-06T09:52:50.426Z,5.40
2017-06-06T09:55:16.382Z,5.53
2017-06-06T09:57:42.467Z,4.97
2017-06-06T10:00:08.418Z,5.13
2017-06-06T10:02:34.378Z,4.70
2017-06-06T10:05:00.362Z,5.07
2017-06-06T10:07:27.102Z,5.00
2017-06-06T10:09:53.084Z,5.30
2017-06-06T10:12:19.842Z,5.43
2017-06-06T10:14:45.802Z,5.20
2017-06-06T10:17:11.803Z,4.93
2017-06-06T10:19:37.768Z,5.57
2017-06-06T10:22:03.730Z,4.30
2017-06-06T10:24:29.743Z,4.40
2017-06-06T10:26:55.730Z,4.30
2017-06-06T10:29:21.722Z,4.50
2017-06-06T10:31:47.735Z,4.20
2017-06-06T10:34:13.695Z,4.80
2017-06-06T10:36:40.395Z,4.60
2017-06-06T10:39:06.387Z,4.20
2017-06-06T10:41:32.359Z,3.43
2017-06-06T10:43:58.432Z,4.07
2017-06-06T10:46:24.402Z,5.03
2017-06-06T10:48:50.371Z,4.10
2017-06-06T10:51:16.387Z,3.47
2017-06-06T10:53:42.359Z,4.23
2017-06-06T10:56:08.445Z,4.37
2017-06-06T10:58:34.434Z,4.57
2017-06-06T11:01:00.398Z,3.87
2017-06-06T11:03:27.219Z,3.20
2017-06-06T11:05:53.930Z,4.00
2017-06-06T11:08:19.893Z,3.70
2017-06-06T11:10:45.915Z,3.90
2017-06-06T11:13:11.878Z,4.30
2017-06-06T11:15:38.590Z,4.37
2017-06-06T11:18:04.586Z,3.40
2017-06-06T11:20:30.558Z,3.40
2017-06-06T11:22:56.539Z,3.50
2017-06-06T11:25:22.651Z,4.13
2017-06-06T11:27:48.619Z,3.43
2017-06-06T11:30:14.590Z,3.50
2017-06-06T11:32:40.602Z,3.53
2017-06-06T11:35:06.554Z,3.60
2017-06-06T11:37:32.518Z,3.70
2017-06-06T11:39:58.563Z,3.50
2017-06-06T11:42:24.567Z,3.00
2017-06-06T11:44:50.535Z,3.37
2017-06-06T11:47:16.528Z,4.00
2017-06-06T11:49:42.510Z,3.77
2017-06-06T11:52:08.514Z,3.43
2017-06-06T11:54:34.483Z,4.73
2017-06-06T11:57:00.442Z,4.10
2017-06-06T11:59:26.475Z,3.77
2017-06-06T12:01:52.508Z,3.77
2017-06-06T12:04:18.478Z,3.77
2017-06-06T12:06:45.242Z,3.97
2017-06-06T12:09:11.206Z,3.40
2017-06-06T12:11:37.171Z,3.57
2017-06-06T12:14:03.162Z,3.70
2017-06-06T12:16:29.126Z,4.30
2017-06-06T12:18:55.162Z,4.07
2017-06-06T12:21:21.119Z,3.80
2017-06-06T12:23:47.074Z,3.73
2017-06-06T12:26:13.806Z,3.73
2017-06-06T12:28:39.813Z,3.70
2017-06-06T12:31:05.782Z,3.93
2017-06-06T12:33:31.743Z,4.07
2017-06-06T12:35:57.766Z,3.90
2017-06-06T12:38:23.742Z,4.10
2017-06-06T12:40:50.454Z,4.30
2017-06-06T12:43:16.463Z,4.50
2017-06-06T12:45:42.451Z,4.60
2017-06-06T12:48:08.406Z,4.60
2017-06-06T12:50:34.422Z,4.50
2017-06-06T12:53:00.383Z,4.47
2017-06-06T12:55:26.359Z,4.50
2017-06-06T12:57:52.371Z,4.27
2017-06-06T13:00:18.334Z,4.67
2017-06-06T13:02:45.038Z,3.93
2017-06-06T13:05:11.095Z,3.90
2017-06-06T13:07:37.059Z,3.40
2017-06-06T13:10:03.022Z,2.90
2017-06-06T13:12:29.025Z,2.57
2017-06-06T13:14:55.050Z,3.10
2017-06-06T13:17:21.020Z,2.73
2017-06-06T13:19:46.982Z,3.10
2017-06-06T13:22:12.990Z,3.00
2017-06-06T13:24:38.974Z,2.73
2017-06-06T13:27:04.950Z,2.80
2017-06-06T13:29:31.719Z,2.70
2017-06-06T13:31:57.678Z,2.70
2017-06-06T13:34:24.415Z,2.10
2017-06-06T13:36:50.421Z,1.93
2017-06-06T13:39:17.136Z,2.57
2017-06-06T13:41:43.115Z,2.70
2017-06-06T13:44:09.130Z,2.80
2017-06-06T13:46:35.102Z,3.20
2017-06-06T13:49:01.070Z,3.03
2017-06-06T13:51:27.833Z,3.60
2017-06-06T13:53:53.840Z,3.27
2017-06-06T13:56:19.838Z,2.37
2017-06-06T13:58:45.846Z,2.37
2017-06-06T14:01:11.810Z,2.50
2017-06-06T14:03:37.778Z,2.50
2017-06-06T14:06:03.808Z,2.87
2017-06-06T14:08:29.777Z,2.50
2017-06-06T14:10:55.781Z,2.70
2017-06-06T14:13:21.823Z,2.73
2017-06-06T14:15:47.843Z,3.00
2017-06-06T14:18:13.850Z,3.00
2017-06-06T14:20:39.863Z,2.93
2017-06-06T14:23:05.834Z,2.40
2017-06-06T14:25:31.803Z,1.90
2017-06-06T14:27:57.915Z,2.77
2017-06-06T14:30:23.958Z,2.73
2017-06-06T14:32:49.918Z,2.57
2017-06-06T14:35:15.914Z,3.00
2017-06-06T14:37:41.940Z,2.60
2017-06-06T14:40:07.923Z,3.30
2017-06-06T14:42:33.957Z,3.20
2017-06-06T14:44:59.947Z,2.70
2017-06-06T14:47:25.950Z,3.00
2017-06-06T14:49:52.009Z,2.60
2017-06-06T14:52:53.172Z,2.60
2017-06-06T14:55:19.181Z,3.10
2017-06-06T14:57:45.143Z,2.80
2017-06-06T15:00:11.859Z,3.07
2017-06-06T15:02:38.600Z,3.30
2017-06-06T15:05:04.558Z,2.97
2017-06-06T15:07:30.587Z,3.70
2017-06-06T15:09:56.542Z,3.03
2017-06-06T15:12:22.554Z,2.60
2017-06-06T15:14:48.521Z,2.90
2017-06-06T15:17:14.486Z,3.30
2017-06-06T15:19:40.494Z,3.00
2017-06-06T15:22:06.452Z,3.37
2017-06-06T15:24:33.178Z,2.70
2017-06-06T15:26:59.957Z,3.27
2017-06-06T15:29:25.918Z,3.07
2017-06-06T15:31:52.626Z,3.00
2017-06-06T15:34:18.630Z,2.40
2017-06-06T15:36:44.594Z,2.27
2017-06-06T15:39:10.563Z,3.10
2017-06-06T15:41:37.409Z,2.83
2017-06-06T15:44:03.396Z,2.80
2017-06-06T15:46:30.123Z,2.30
2017-06-06T15:48:56.122Z,2.20
2017-06-06T15:51:22.082Z,2.33
2017-06-06T15:53:48.050Z,2.23
2017-06-06T15:56:14.863Z,2.13
2017-06-06T15:58:40.930Z,2.40
2017-06-06T16:01:06.961Z,2.30
2017-06-06T16:03:32.946Z,2.33
2017-06-06T16:05:58.904Z,2.13
2017-06-06T16:08:24.922Z,2.37
2017-06-06T16:10:50.998Z,1.97
2017-06-06T16:13:16.962Z,2.40
2017-06-06T16:15:42.965Z,2.43
2017-06-06T16:18:09.670Z,2.50
2017-06-06T16:20:35.674Z,2.70
2017-06-06T16:23:01.658Z,2.17
2017-06-06T16:25:27.646Z,2.40
2017-06-06T16:27:53.639Z,2.10
2017-06-06T16:30:19.598Z,2.63
2017-06-06T16:32:45.607Z,2.40
2017-06-06T16:35:11.587Z,2.10
2017-06-06T16:37:37.554Z,2.30
2017-06-06T16:40:04.416Z,2.30
2017-06-06T16:42:30.410Z,2.23
2017-06-06T16:44:56.515Z,1.90
2017-06-06T16:47:22.522Z,2.27
2017-06-06T16:49:48.490Z,2.00
2017-06-06T16:52:15.183Z,2.30
2017-06-06T16:54:41.191Z,2.00
2017-06-06T16:57:07.175Z,1.90
2017-06-06T16:59:33.166Z,1.60
2017-06-06T17:01:59.210Z,1.77
2017-06-06T17:04:25.170Z,2.03
2017-06-06T17:06:51.212Z,2.33
2017-06-06T17:09:17.248Z,1.80
2017-06-06T17:11:43.212Z,2.23
2017-06-06T17:14:09.234Z,2.20
2017-06-06T17:16:35.217Z,2.43
2017-06-06T17:19:01.208Z,2.27
2017-06-06T17:21:27.282Z,1.70
2017-06-06T17:23:53.251Z,2.00
2017-06-06T17:26:19.274Z,2.10
2017-06-06T17:28:45.406Z,2.17
2017-06-06T17:31:11.418Z,2.20
2017-06-06T17:33:37.590Z,2.47
2017-06-06T17:36:03.621Z,2.60
2017-06-06T17:38:29.662Z,2.87
2017-06-06T17:40:55.658Z,2.80
2017-06-06T17:43:21.629Z,2.00
2017-06-06T17:45:47.626Z,2.90
2017-06-06T17:48:13.615Z,1.77
2017-06-06T17:50:39.619Z,2.23
2017-06-06T17:53:05.607Z,2.17
2017-06-06T17:55:31.584Z,2.20
2017-06-06T17:57:57.604Z,1.80
2017-06-06T18:00:23.563Z,2.10
2017-06-06T18:02:50.359Z,2.30
2017-06-06T18:05:16.328Z,1.83
2017-06-06T18:07:42.290Z,1.87
2017-06-06T18:10:08.287Z,2.07
2017-06-06T18:12:34.273Z,1.47
2017-06-06T18:15:00.270Z,2.17
2017-06-06T18:17:26.318Z,2.00
2017-06-06T18:19:52.342Z,2.00
2017-06-06T18:22:18.307Z,1.60
2017-06-06T18:24:44.279Z,1.57
2017-06-06T18:27:11.054Z,1.20
2017-06-06T18:29:37.033Z,1.27
2017-06-06T18:32:03.009Z,1.10
2017-06-06T18:34:29.762Z,0.97
2017-06-06T18:36:55.715Z,1.10
2017-06-06T18:39:21.726Z,0.90
2017-06-06T18:41:47.694Z,1.53
2017-06-06T18:44:13.703Z,0.63
2017-06-06T18:46:39.718Z,0.80
2017-06-06T18:49:05.699Z,1.00
2017-06-06T18:51:32.418Z,0.67
2017-06-06T18:53:59.246Z,0.70
2017-06-06T18:56:25.198Z,0.80
2017-06-06T18:58:51.335Z,1.20
2017-06-06T19:01:17.302Z,1.07
2017-06-06T19:03:43.322Z,0.90
2017-06-06T19:06:09.392Z,1.13
2017-06-06T19:08:35.478Z,1.00
2017-06-06T19:11:01.452Z,1.03
2017-06-06T19:13:27.503Z,1.10
2017-06-06T19:15:53.495Z,1.10
2017-06-06T19:18:19.466Z,1.50
2017-06-06T19:20:45.474Z,1.10
2017-06-06T19:23:11.442Z,1.47
2017-06-06T19:25:38.568Z,1.10
2017-06-06T19:28:04.606Z,1.30
2017-06-06T19:30:31.324Z,1.30
2017-06-06T19:32:57.607Z,1.40
2017-06-06T19:35:23.589Z,1.20
2017-06-06T19:37:49.554Z,1.73
2017-06-06T19:40:15.694Z,1.13
2017-06-06T19:42:42.004Z,2.10
2017-06-06T19:45:08.170Z,1.10
2017-06-06T19:47:36.827Z,1.47
2017-06-06T19:50:03.080Z,2.53
2017-06-06T19:52:30.077Z,1.80
2017-06-06T19:54:56.149Z,1.70
2017-06-06T19:57:22.199Z,1.87
2017-06-06T19:59:48.200Z,1.63
2017-06-06T20:02:14.199Z,2.10
2017-06-06T20:04:40.342Z,1.53
2017-06-06T20:07:06.404Z,1.90
2017-06-06T20:09:32.441Z,1.80
2017-06-06T20:11:58.533Z,1.70
2017-06-06T20:14:24.650Z,1.57
2017-06-06T20:16:50.652Z,1.97
2017-06-06T20:19:16.714Z,2.20
2017-06-06T20:21:42.778Z,2.00
2017-06-06T20:24:08.739Z,2.20
2017-06-06T20:26:34.741Z,1.90
2017-06-06T20:29:00.731Z,1.70
2017-06-06T20:31:26.758Z,2.07
2017-06-06T20:33:52.730Z,2.23
2017-06-06T20:36:18.686Z,1.87
2017-06-06T20:38:44.686Z,1.80
2017-06-06T20:41:10.642Z,1.90
2017-06-06T20:43:36.649Z,1.50
2017-06-06T20:46:02.658Z,1.90
2017-06-06T20:48:28.662Z,2.17
2017-06-06T20:50:54.638Z,1.73
2017-06-06T20:53:21.391Z,1.57
2017-06-06T20:55:47.358Z,2.07
2017-06-06T20:58:13.380Z,1.80
2017-06-06T21:00:39.342Z,1.80
2017-06-06T21:03:05.310Z,2.00
2017-06-06T21:05:31.331Z,1.90
2017-06-06T21:07:57.369Z,2.00
2017-06-06T21:10:23.372Z,1.57
2017-06-06T21:12:49.350Z,1.70
2017-06-06T21:15:15.548Z,1.70
2017-06-06T21:17:42.252Z,1.57
2017-06-06T21:20:08.215Z,1.80
2017-06-06T21:22:34.227Z,1.73
2017-06-06T21:25:00.206Z,1.20
2017-06-06T21:27:27.559Z,1.60
2017-06-06T21:29:53.530Z,1.87
2017-06-06T21:32:19.565Z,1.93
2017-06-06T21:34:46.303Z,1.93
2017-06-06T21:37:12.267Z,2.63
2017-06-06T21:39:38.270Z,1.77
2017-06-06T21:42:04.462Z,1.70
2017-06-06T21:44:30.473Z,1.70
2017-06-06T21:46:56.478Z,1.67
2017-06-06T21:49:22.454Z,1.70
2017-06-06T21:51:49.174Z,1.47
2017-06-06T21:54:15.232Z,1.60
2017-06-06T21:56:41.202Z,1.83
2017-06-06T21:59:07.162Z,1.53
2017-06-06T22:01:33.195Z,1.90
2017-06-06T22:03:59.205Z,1.93
2017-06-06T22:06:25.189Z,1.93
2017-06-06T22:08:51.186Z,1.60
2017-06-06T22:11:17.156Z,1.47
2017-06-06T22:13:43.119Z,1.50
2017-06-06T22:16:09.178Z,1.53
2017-06-06T22:18:35.142Z,1.40
2017-06-06T22:21:01.146Z,1.40
2017-06-06T22:23:27.174Z,1.63
2017-06-06T22:25:53.134Z,1.70
2017-06-06T22:28:19.100Z,1.93
2017-06-06T22:30:45.852Z,1.97
2017-06-06T22:33:11.810Z,1.30
2017-06-06T22:35:37.823Z,1.47
2017-06-06T22:38:03.846Z,1.87
2017-06-06T22:40:29.847Z,2.20
2017-06-06T22:42:55.822Z,1.77
2017-06-06T22:45:21.827Z,1.50
2017-06-06T22:47:47.783Z,1.50
2017-06-06T22:50:13.787Z,1.90
2017-06-06T22:52:39.755Z,1.63
2017-06-06T22:55:05.730Z,1.80
2017-06-06T22:57:31.782Z,1.63
2017-06-06T22:59:57.777Z,1.80
2017-06-06T23:02:23.755Z,1.97
2017-06-06T23:04:49.777Z,1.23
2017-06-06T23:07:15.738Z,1.77
2017-06-06T23:09:41.716Z,1.83
2017-06-06T23:12:07.730Z,1.73
2017-06-06T23:14:33.701Z,1.40
2017-06-06T23:16:59.690Z,1.43
2017-06-06T23:19:26.454Z,1.77
2017-06-06T23:21:52.406Z,1.40
2017-06-06T23:24:18.362Z,1.53
2017-06-06T23:26:44.366Z,1.40
2017-06-06T23:29:10.310Z,2.10
2017-06-06T23:31:36.310Z,1.00
2017-06-06T23:34:02.331Z,1.53
2017-06-06T23:36:28.329Z,1.77
2017-06-06T23:38:54.418Z,1.50
2017-06-06T23:41:20.393Z,1.47
2017-06-06T23:43:46.359Z,1.43
2017-06-06T23:46:12.346Z,1.47
2017-06-06T23:48:38.343Z,1.20
2017-06-06T23:51:04.310Z,1.30
2017-06-06T23:53:30.294Z,1.50
2017-06-06T23:55:56.314Z,1.10
2017-06-06T23:58:22.275Z,1.20
